createdAt,value
2023-01-11T11:12:45.923Z,95267.00
2023-01-11T11:13:45.207Z,95269.00
2023-01-11T11:14:46.426Z,95269.00
2023-01-11T11:15:44.955Z,95275.00
2023-01-11T11:16:44.905Z,95269.00
2023-01-11T11:17:44.723Z,95269.00
2023-01-11T11:18:44.568Z,95269.00
2023-01-11T11:19:44.380Z,95267.00
2023-01-11T11:20:44.327Z,95263.00
2023-01-11T11:21:44.202Z,95261.00
2023-01-11T11:22:44.108Z,95261.00
2023-01-11T11:23:43.746Z,95261.00
2023-01-11T11:24:43.551Z,95267.00
2023-01-11T11:25:43.553Z,95263.00
2023-01-11T11:26:43.215Z,95263.00
2023-01-11T11:27:43.028Z,95263.00
2023-01-11T11:28:42.846Z,95259.00
2023-01-11T11:29:42.693Z,95259.00
2023-01-11T11:30:42.531Z,95253.00
2023-01-11T11:31:42.879Z,95255.00
2023-01-11T11:32:42.164Z,95253.00
2023-01-11T11:33:41.969Z,95253.00
2023-01-11T11:34:41.786Z,95249.00
2023-01-11T11:35:41.604Z,95247.00
2023-01-11T11:36:41.425Z,95245.00
2023-01-11T11:37:41.217Z,95247.00
2023-01-11T11:38:41.046Z,95243.00
2023-01-11T11:39:40.903Z,95239.00
2023-01-11T11:40:40.683Z,95234.00
2023-01-11T11:41:40.515Z,95238.00
2023-01-11T11:42:40.316Z,95232.00
2023-01-11T11:43:40.171Z,95226.00
2023-01-11T11:44:40.943Z,95226.00
2023-01-11T11:45:39.866Z,95222.00
2023-01-11T11:46:39.650Z,95220.00
2023-01-11T11:47:39.431Z,95218.00
2023-01-11T11:48:39.229Z,95218.00
2023-01-11T11:49:39.030Z,95216.00
2023-01-11T11:50:45.907Z,95214.00
2023-01-11T11:51:39.773Z,95214.00
2023-01-11T11:52:38.569Z,95216.00
2023-01-11T11:53:38.369Z,95216.00
2023-01-11T11:54:52.003Z,95214.00
